This is the latest recevied weather packets stored in our database for station/object WMKC. If no packets are shown the sender has not sent any weather packets the latest 10 day(s).
| Time | Temp. | Humidity | Pressure | Rain* | Wind** | Luminosity | Snow |
|---|---|---|---|---|---|---|---|
| 1777687834 | 31.67° C | 55% | 1010 hPa | - | - | - | - |
| 1777684226 | 28.89° C | 70% | 1010 hPa | - | - | - | - |
| 1777680624 | 26.67° C | 74% | 1009 hPa | - | - | - | - |
| 1777677023 | 25.56° C | 78% | 1008 hPa | - | - | - | - |
| 1777673423 | 25.56° C | 78% | 1008 hPa | - | - | - | - |
| 1777669836 | 25.56° C | 78% | 1008 hPa | - | - | - | - |
| 1777666223 | 25.56° C | 78% | 1008 hPa | - | - | - | - |
| 1777662623 | 26.67° C | 74% | 1008 hPa | - | - | - | - |
| 1777659023 | 26.67° C | 74% | 1009 hPa | - | - | - | - |
| 1777655435 | 26.67° C | 78% | 1010 hPa | - | - | - | - |
| 1777651824 | 27.78° C | 74% | 1010 hPa | - | - | - | - |
| 1777648219 | 27.78° C | 74% | 1010 hPa | - | - | - | - |
| 1777644623 | 28.89° C | 74% | 1009 hPa | - | - | - | - |
| 1777641031 | 28.89° C | 74% | 1008 hPa | - | - | - | - |
| 1777637423 | 30° C | 70% | 1008 hPa | - | - | - | - |
| 1777633822 | 30° C | 66% | 1008 hPa | - | - | - | - |
| 1777630230 | 30.56° C | 70% | 1007 hPa | - | - | - | - |
| 1777626634 | 30.56° C | 66% | 1007 hPa | - | - | - | - |
| 1777623024 | 31.67° C | 62% | 1007 hPa | - | - | - | - |
| 1777619422 | 31.67° C | 62% | 1008 hPa | - | - | - | - |
| 1777615828 | 33.89° C | 49% | 1009 hPa | - | - | - | - |
| 1777612234 | 35° C | 46% | 1010 hPa | - | - | - | - |
| 1777608621 | 33.89° C | 52% | 1011 hPa | - | - | - | - |
| 1777605021 | 31.67° C | 59% | 1011 hPa | - | - | - | - |
| 1777601421 | 31.67° C | 66% | 1011 hPa | - | - | - | - |
* Rain since midnight (hover to see other rain measurements)
** Current wind speed in m/s (hover to see current wind gust speed)